createdAt,value
2022-10-07T00:00:52.945Z,102535.16
2022-10-07T00:03:50.488Z,102533.63
2022-10-07T00:06:47.386Z,102528.78
2022-10-07T00:09:44.684Z,102526.69
2022-10-07T00:12:41.723Z,102522.53
2022-10-07T00:15:38.569Z,102513.84
2022-10-07T00:18:36.290Z,102515.59
2022-10-07T00:21:34.361Z,102516.97
2022-10-07T00:24:31.692Z,102513.31
2022-10-07T00:27:28.810Z,102514.44
2022-10-07T00:30:25.783Z,102509.66
2022-10-07T00:33:22.513Z,102508.00
2022-10-07T00:36:27.010Z,102506.72
2022-10-07T00:39:24.759Z,102506.28
2022-10-07T00:42:21.362Z,102500.84
2022-10-07T00:45:21.604Z,102492.19
2022-10-07T00:48:21.460Z,102485.09
2022-10-07T00:51:18.765Z,102486.22
2022-10-07T00:54:15.907Z,102471.78
2022-10-07T00:57:12.866Z,102476.50
2022-10-07T01:00:10.490Z,102476.28
2022-10-07T01:03:07.554Z,102477.75
2022-10-07T01:06:05.312Z,102461.13
2022-10-07T01:09:02.993Z,102458.94
2022-10-07T01:12:03.667Z,102454.63
2022-10-07T01:15:24.940Z,102454.22
2022-10-07T01:18:46.519Z,102440.81
2022-10-07T01:21:47.253Z,102441.25
2022-10-07T01:25:12.574Z,102435.63
2022-10-07T01:28:25.093Z,102439.50
2022-10-07T01:31:27.140Z,102434.06
2022-10-07T01:34:26.502Z,102422.44
2022-10-07T01:37:24.015Z,102420.22
2022-10-07T01:40:27.436Z,102425.16
2022-10-07T01:43:24.835Z,102418.78
2022-10-07T01:46:26.692Z,102411.47
2022-10-07T01:49:26.819Z,102406.66
2022-10-07T01:52:45.170Z,102406.13
2022-10-07T01:55:51.170Z,102404.34
2022-10-07T01:58:56.865Z,102401.22
2022-10-07T02:02:28.274Z,102397.75
2022-10-07T02:05:41.953Z,102385.66
2022-10-07T02:08:49.043Z,102382.94
2022-10-07T02:11:46.362Z,102385.66
2022-10-07T02:14:48.953Z,102377.91
2022-10-07T02:17:56.554Z,102374.38
2022-10-07T02:20:53.523Z,102377.47
2022-10-07T02:23:51.890Z,102371.13
2022-10-07T02:26:50.092Z,102374.38
2022-10-07T02:29:47.465Z,102363.09
2022-10-07T02:32:51.038Z,102358.47
2022-10-07T02:35:51.603Z,102366.09
2022-10-07T02:38:48.810Z,102354.91
2022-10-07T02:42:11.685Z,102353.56
2022-10-07T02:45:14.240Z,102343.09
2022-10-07T02:48:23.376Z,102336.06
2022-10-07T02:51:21.511Z,102337.53
2022-10-07T02:54:23.256Z,102336.59
2022-10-07T02:57:20.505Z,102332.13
2022-10-07T03:00:17.644Z,102340.09
2022-10-07T03:03:21.861Z,102326.81
2022-10-07T03:06:26.116Z,102323.28
2022-10-07T03:09:23.582Z,102324.84
2022-10-07T03:12:20.637Z,102311.59
2022-10-07T03:15:17.811Z,102313.66
2022-10-07T03:18:26.662Z,102315.44
2022-10-07T03:21:33.583Z,102310.16
2022-10-07T03:24:31.956Z,102314.53
2022-10-07T03:27:29.166Z,102317.94
2022-10-07T03:30:26.525Z,102312.81
2022-10-07T03:33:25.080Z,102299.25
2022-10-07T03:36:23.238Z,102296.22
2022-10-07T03:39:20.980Z,102289.69
2022-10-07T03:42:19.566Z,102288.78
2022-10-07T03:45:16.415Z,102285.63
2022-10-07T03:48:13.922Z,102281.13
2022-10-07T03:51:10.674Z,102280.13
2022-10-07T03:54:09.403Z,102281.97
2022-10-07T03:57:26.452Z,102274.69
2022-10-07T04:00:24.552Z,102269.88
2022-10-07T04:03:24.597Z,102265.41
2022-10-07T04:06:21.829Z,102260.16
2022-10-07T04:09:20.627Z,102268.41
2022-10-07T04:12:17.557Z,102272.38
2022-10-07T04:15:14.639Z,102260.47
2022-10-07T04:18:13.683Z,102251.72
2022-10-07T04:21:10.867Z,102253.78
2022-10-07T04:24:07.564Z,102257.34
2022-10-07T04:27:06.945Z,102248.34
2022-10-07T04:30:05.288Z,102242.09
2022-10-07T04:33:02.993Z,102245.22
2022-10-07T04:36:07.980Z,102246.19
2022-10-07T04:39:09.864Z,102236.88
2022-10-07T04:42:34.782Z,102231.56
2022-10-07T04:45:35.649Z,102238.72
2022-10-07T04:48:32.884Z,102233.09
2022-10-07T04:51:31.258Z,102228.53
2022-10-07T04:54:29.559Z,102231.44
2022-10-07T04:57:26.583Z,102229.84
2022-10-07T05:00:24.077Z,102228.63
2022-10-07T05:03:21.692Z,102229.16
2022-10-07T05:06:19.995Z,102226.13
2022-10-07T05:09:16.858Z,102218.38
2022-10-07T05:12:17.766Z,102208.91
2022-10-07T05:15:15.832Z,102214.00
2022-10-07T05:18:13.866Z,102208.28
2022-10-07T05:21:11.252Z,102209.16
2022-10-07T05:24:12.671Z,102206.34
2022-10-07T05:27:10.010Z,102196.47
2022-10-07T05:30:09.354Z,102201.56
2022-10-07T05:33:07.310Z,102203.97
2022-10-07T05:36:05.629Z,102206.69
2022-10-07T05:39:02.709Z,102201.25
2022-10-07T05:42:10.685Z,102207.09
2022-10-07T05:45:12.712Z,102206.19
2022-10-07T05:48:09.669Z,102202.63
2022-10-07T05:51:08.323Z,102202.41
2022-10-07T05:54:05.968Z,102198.34
2022-10-07T05:57:10.846Z,102199.28
2022-10-07T06:00:08.702Z,102199.50
2022-10-07T06:03:11.285Z,102193.84
2022-10-07T06:06:09.119Z,102185.94
2022-10-07T06:09:25.540Z,102189.59
2022-10-07T06:12:43.213Z,102191.47
2022-10-07T06:15:43.502Z,102189.28
2022-10-07T06:18:40.888Z,102187.09
2022-10-07T06:21:38.982Z,102185.72
2022-10-07T06:24:35.814Z,102182.38
2022-10-07T06:27:34.956Z,102185.59
2022-10-07T06:30:33.754Z,102181.13
2022-10-07T06:33:33.274Z,102186.56
2022-10-07T06:36:30.841Z,102192.94
2022-10-07T06:39:28.565Z,102192.94
2022-10-07T06:42:27.088Z,102191.53
2022-10-07T06:45:47.037Z,102196.25
2022-10-07T06:48:46.720Z,102198.13
2022-10-07T06:51:46.934Z,102189.22
2022-10-07T06:54:44.889Z,102190.06
2022-10-07T06:57:56.191Z,102189.50
2022-10-07T07:00:54.294Z,102191.25
2022-10-07T07:03:54.146Z,102193.88
2022-10-07T07:06:51.636Z,102190.19
2022-10-07T07:09:48.962Z,102191.84
2022-10-07T07:12:46.240Z,102185.25
2022-10-07T07:15:43.875Z,102188.69
2022-10-07T07:18:40.803Z,102184.09
2022-10-07T07:21:40.850Z,102189.31
2022-10-07T07:24:41.352Z,102179.38
2022-10-07T07:27:38.945Z,102181.88
2022-10-07T07:30:37.273Z,102175.69
2022-10-07T07:33:40.077Z,102175.38
2022-10-07T07:36:37.022Z,102173.19
2022-10-07T07:39:35.730Z,102163.00
2022-10-07T07:42:40.007Z,102157.16
2022-10-07T07:45:37.028Z,102166.50
2022-10-07T07:48:34.625Z,102165.31
2022-10-07T07:51:32.900Z,102166.22
2022-10-07T07:54:30.602Z,102165.22
2022-10-07T07:57:28.396Z,102166.22
2022-10-07T08:00:27.945Z,102168.59
2022-10-07T08:03:35.047Z,102168.91
2022-10-07T08:06:32.663Z,102176.47
2022-10-07T08:09:31.994Z,102170.09
2022-10-07T08:12:28.978Z,102158.59
2022-10-07T08:15:26.133Z,102170.22
2022-10-07T08:18:22.868Z,102162.34
2022-10-07T08:21:21.096Z,102150.41
2022-10-07T08:24:22.908Z,102154.00
2022-10-07T08:27:20.476Z,102150.09
2022-10-07T08:30:17.837Z,102146.81
2022-10-07T08:33:15.788Z,102150.06
2022-10-07T08:36:17.710Z,102151.31
2022-10-07T08:39:15.127Z,102141.22
2022-10-07T08:42:16.904Z,102130.44
2022-10-07T08:45:19.289Z,102136.81
2022-10-07T08:48:22.602Z,102129.09
2022-10-07T08:51:39.264Z,102132.66
2022-10-07T08:54:36.013Z,102129.94
2022-10-07T08:58:12.025Z,102122.34
2022-10-07T09:01:32.168Z,102114.84
2022-10-07T09:04:41.213Z,102106.81
2022-10-07T09:07:48.176Z,102103.47
2022-10-07T09:10:50.286Z,102094.59
2022-10-07T09:14:02.771Z,102106.78
2022-10-07T09:17:13.173Z,102095.88
2022-10-07T09:20:16.572Z,102090.88
2022-10-07T09:23:15.406Z,102087.06
2022-10-07T09:26:14.712Z,102088.03
2022-10-07T09:29:12.000Z,102082.06
2022-10-07T09:32:17.706Z,102073.13
2022-10-07T09:35:17.646Z,102083.63
2022-10-07T09:38:17.238Z,102070.78
2022-10-07T09:41:32.338Z,102076.53
2022-10-07T09:44:30.499Z,102067.28
2022-10-07T09:47:30.621Z,102070.06
2022-10-07T09:50:39.609Z,102059.19
2022-10-07T09:53:38.180Z,102058.88
2022-10-07T09:56:37.638Z,102051.53
2022-10-07T09:59:36.078Z,102059.34
2022-10-07T10:02:32.957Z,102057.06
2022-10-07T10:05:35.205Z,102052.31
2022-10-07T10:08:35.954Z,102042.44
2022-10-07T10:11:34.221Z,102041.59
2022-10-07T10:14:59.918Z,102042.19
2022-10-07T10:17:58.618Z,102029.69
2022-10-07T10:21:13.885Z,102031.13
2022-10-07T10:24:12.334Z,102029.59
2022-10-07T10:27:21.227Z,102026.44
2022-10-07T10:30:22.047Z,102022.09
2022-10-07T10:33:42.210Z,102017.34
2022-10-07T10:36:40.193Z,102020.75
2022-10-07T10:40:02.259Z,102012.13
2022-10-07T10:43:07.979Z,102015.41
2022-10-07T10:46:23.974Z,102001.78
2022-10-07T10:49:26.119Z,102003.69
2022-10-07T10:52:35.116Z,102010.03
2022-10-07T10:55:48.894Z,102007.38
2022-10-07T10:59:18.714Z,101997.97
2022-10-07T11:02:36.973Z,101979.09
2022-10-07T11:05:35.773Z,101974.25
2022-10-07T11:08:38.290Z,101950.50
2022-10-07T11:11:36.336Z,101943.59
2022-10-07T11:14:46.203Z,101931.75
2022-10-07T11:17:43.024Z,101929.78
2022-10-07T11:20:48.232Z,101938.84
2022-10-07T11:24:18.413Z,101937.63
2022-10-07T11:27:16.521Z,101925.59
2022-10-07T11:30:23.168Z,101915.06
2022-10-07T11:33:24.598Z,101914.50
2022-10-07T11:36:24.786Z,101905.03
2022-10-07T11:39:23.171Z,101903.50
2022-10-07T11:42:24.686Z,101895.13
2022-10-07T11:45:26.350Z,101891.41
2022-10-07T11:48:34.249Z,101883.47
2022-10-07T11:51:50.521Z,101893.00
2022-10-07T11:55:09.527Z,101879.22
2022-10-07T11:58:08.330Z,101886.75
2022-10-07T12:01:28.652Z,101875.72
2022-10-07T12:04:35.248Z,101872.13
2022-10-07T12:07:35.067Z,101868.94
2022-10-07T12:10:33.565Z,101872.28
2022-10-07T12:13:41.662Z,101855.44
2022-10-07T12:16:39.070Z,101863.47
2022-10-07T12:19:35.870Z,101843.38
2022-10-07T12:22:33.339Z,101840.56
2022-10-07T12:25:32.448Z,101849.41
2022-10-07T12:28:40.372Z,101829.66
2022-10-07T12:31:41.514Z,101825.81
2022-10-07T12:34:41.260Z,101825.41
2022-10-07T12:37:38.481Z,101830.38
2022-10-07T12:40:36.207Z,101818.09
2022-10-07T12:43:59.189Z,101813.44
2022-10-07T12:47:00.894Z,101812.63
2022-10-07T12:50:03.207Z,101814.81
2022-10-07T12:53:01.479Z,101794.66
2022-10-07T12:55:57.832Z,101788.38
2022-10-07T12:59:13.249Z,101791.13
2022-10-07T13:02:44.452Z,101792.75
2022-10-07T13:05:57.477Z,101794.16
2022-10-07T13:09:03.919Z,101789.53
2022-10-07T13:12:12.941Z,101788.50
2022-10-07T13:15:13.199Z,101786.19
2022-10-07T13:18:16.461Z,101781.59
2022-10-07T13:21:22.158Z,101781.91
2022-10-07T13:24:24.213Z,101772.41
2022-10-07T13:27:28.437Z,101759.31
2022-10-07T13:30:39.056Z,101760.81
2022-10-07T13:33:36.363Z,101753.06
2022-10-07T13:36:33.962Z,101750.94
2022-10-07T13:39:31.358Z,101752.31
2022-10-07T13:42:31.205Z,101748.28
2022-10-07T13:45:28.446Z,101737.97
2022-10-07T13:48:28.184Z,101744.63
2022-10-07T13:51:40.376Z,101735.31
2022-10-07T13:54:37.476Z,101734.78
2022-10-07T13:57:35.270Z,101728.09
2022-10-07T14:00:33.274Z,101725.44
2022-10-07T14:03:30.230Z,101723.00
2022-10-07T14:06:43.360Z,101724.25
2022-10-07T14:09:58.825Z,101726.66
2022-10-07T14:13:00.726Z,101725.09
2022-10-07T14:15:58.122Z,101712.81
2022-10-07T14:18:56.214Z,101705.28
2022-10-07T14:21:53.419Z,101691.31
2022-10-07T14:24:54.793Z,101690.38
2022-10-07T14:27:53.487Z,101685.53
2022-10-07T14:31:27.255Z,101670.81
2022-10-07T14:34:43.596Z,101679.94
2022-10-07T14:37:41.448Z,101679.13
2022-10-07T14:40:38.190Z,101667.22
2022-10-07T14:43:37.270Z,101668.50
2022-10-07T14:46:34.103Z,101662.16
2022-10-07T14:49:31.869Z,101665.16
2022-10-07T14:52:31.603Z,101652.28
2022-10-07T14:55:29.601Z,101652.81
2022-10-07T14:58:27.696Z,101656.25
2022-10-07T15:01:25.655Z,101649.44
2022-10-07T15:04:23.446Z,101657.75
2022-10-07T15:07:21.434Z,101646.00
2022-10-07T15:10:20.046Z,101645.13
2022-10-07T15:13:17.345Z,101652.56
2022-10-07T15:16:23.484Z,101656.06
2022-10-07T15:19:21.454Z,101644.94
2022-10-07T15:22:18.951Z,101632.53
2022-10-07T15:25:18.083Z,101627.41
2022-10-07T15:28:15.594Z,101634.03
2022-10-07T15:31:12.348Z,101627.91
2022-10-07T15:34:10.260Z,101627.53
2022-10-07T15:37:09.230Z,101624.50
2022-10-07T15:40:07.843Z,101622.75
2022-10-07T15:43:05.638Z,101605.91
2022-10-07T15:46:03.223Z,101620.63
2022-10-07T15:49:00.235Z,101614.84
2022-10-07T15:51:57.697Z,101614.22
2022-10-07T15:54:55.496Z,101601.94
2022-10-07T15:57:52.468Z,101606.97
2022-10-07T16:01:05.569Z,101608.66
2022-10-07T16:04:02.938Z,101614.41
2022-10-07T16:07:00.759Z,101616.53
2022-10-07T16:09:58.311Z,101603.31
2022-10-07T16:12:55.345Z,101608.91
2022-10-07T16:16:02.193Z,101602.84
2022-10-07T16:19:00.400Z,101606.88
2022-10-07T16:21:57.109Z,101603.13
2022-10-07T16:24:55.609Z,101605.31
2022-10-07T16:28:11.092Z,101598.50
2022-10-07T16:31:08.622Z,101608.38
2022-10-07T16:34:05.378Z,101597.03
2022-10-07T16:37:02.343Z,101602.34
2022-10-07T16:39:59.078Z,101602.44
2022-10-07T16:42:59.369Z,101598.41
2022-10-07T16:46:00.146Z,101578.19
2022-10-07T16:48:57.462Z,101580.66
2022-10-07T16:51:54.630Z,101565.84
2022-10-07T16:54:51.442Z,101567.38
2022-10-07T16:57:48.963Z,101570.91
2022-10-07T17:00:46.523Z,101562.56
2022-10-07T17:03:44.664Z,101553.28
2022-10-07T17:06:43.950Z,101552.81
2022-10-07T17:09:41.270Z,101555.81
2022-10-07T17:12:38.557Z,101559.13
2022-10-07T17:15:39.766Z,101549.75
2022-10-07T17:18:37.654Z,101549.53
2022-10-07T17:21:39.754Z,101550.28
2022-10-07T17:24:37.353Z,101560.13
2022-10-07T17:27:34.403Z,101566.63
2022-10-07T17:30:33.338Z,101566.84
2022-10-07T17:33:31.161Z,101572.09
2022-10-07T17:36:28.444Z,101572.09
2022-10-07T17:39:25.501Z,101569.25
2022-10-07T17:42:22.487Z,101571.75
2022-10-07T17:45:19.480Z,101574.06
2022-10-07T17:48:16.574Z,101566.34
2022-10-07T17:51:15.204Z,101571.75
2022-10-07T17:54:12.873Z,101560.38
2022-10-07T17:57:10.674Z,101566.50
2022-10-07T18:00:08.078Z,101566.34
2022-10-07T18:03:13.178Z,101565.66
2022-10-07T18:06:10.767Z,101566.03
2022-10-07T18:09:09.255Z,101568.72
2022-10-07T18:12:25.039Z,101568.97
2022-10-07T18:15:22.319Z,101569.94
2022-10-07T18:18:19.668Z,101553.88
2022-10-07T18:21:16.279Z,101564.38
2022-10-07T18:24:13.614Z,101565.25
2022-10-07T18:27:10.585Z,101552.91
2022-10-07T18:30:08.339Z,101546.31
2022-10-07T18:33:05.446Z,101547.34
2022-10-07T18:36:03.551Z,101545.66
2022-10-07T18:39:00.133Z,101533.97
2022-10-07T18:41:58.307Z,101541.09
2022-10-07T18:44:55.456Z,101541.66
2022-10-07T18:47:52.366Z,101530.63
2022-10-07T18:50:52.609Z,101532.63
2022-10-07T18:53:49.429Z,101526.38
2022-10-07T18:56:47.271Z,101523.00
2022-10-07T18:59:44.161Z,101527.41
2022-10-07T19:02:44.978Z,101521.88
2022-10-07T19:05:42.587Z,101526.84
2022-10-07T19:08:40.006Z,101535.00
2022-10-07T19:11:37.450Z,101532.44
2022-10-07T19:14:35.098Z,101518.13
2022-10-07T19:17:32.340Z,101519.81
2022-10-07T19:20:29.916Z,101522.81
2022-10-07T19:23:27.880Z,101512.00
2022-10-07T19:26:26.571Z,101512.91
2022-10-07T19:29:23.707Z,101518.69
2022-10-07T19:32:21.213Z,101518.13
2022-10-07T19:35:18.565Z,101525.03
2022-10-07T19:38:15.701Z,101523.59
2022-10-07T19:41:14.262Z,101522.69
2022-10-07T19:44:11.748Z,101530.56
2022-10-07T19:47:08.861Z,101521.56
2022-10-07T19:50:06.882Z,101510.63
2022-10-07T19:53:04.951Z,101523.69
2022-10-07T19:56:06.174Z,101535.81
2022-10-07T19:59:08.599Z,101523.69
2022-10-07T20:02:08.429Z,101522.94
2022-10-07T20:05:07.131Z,101510.72
2022-10-07T20:08:09.358Z,101503.16
2022-10-07T20:11:07.403Z,101492.94
2022-10-07T20:14:05.835Z,101495.22
2022-10-07T20:17:02.730Z,101506.06
2022-10-07T20:19:59.334Z,101501.72
2022-10-07T20:22:57.824Z,101500.81
2022-10-07T20:25:54.544Z,101507.78
2022-10-07T20:28:54.239Z,101494.50
2022-10-07T20:31:52.511Z,101487.78
2022-10-07T20:34:50.273Z,101498.44
2022-10-07T20:37:47.996Z,101505.97
2022-10-07T20:41:04.199Z,101484.41
2022-10-07T20:44:01.510Z,101488.59
2022-10-07T20:46:58.774Z,101488.97
2022-10-07T20:49:56.758Z,101469.78
2022-10-07T20:52:53.726Z,101478.50
2022-10-07T20:55:50.286Z,101451.28
2022-10-07T20:58:47.486Z,101463.84
2022-10-07T21:01:45.070Z,101464.13
2022-10-07T21:04:42.538Z,101454.00
2022-10-07T21:07:40.247Z,101462.63
2022-10-07T21:10:37.927Z,101454.13
2022-10-07T21:13:34.424Z,101447.03
2022-10-07T21:16:32.154Z,101456.09
2022-10-07T21:19:31.677Z,101438.56
2022-10-07T21:22:28.714Z,101421.97
2022-10-07T21:25:26.610Z,101418.63
2022-10-07T21:28:25.196Z,101416.97
2022-10-07T21:31:22.944Z,101419.53
2022-10-07T21:34:20.988Z,101415.66
2022-10-07T21:37:18.763Z,101404.50
2022-10-07T21:40:15.523Z,101400.41
2022-10-07T21:43:12.810Z,101400.53
2022-10-07T21:46:10.838Z,101401.75
2022-10-07T21:49:07.845Z,101395.72
2022-10-07T21:52:04.591Z,101390.19
2022-10-07T21:55:01.474Z,101394.22
2022-10-07T21:57:58.457Z,101391.13
2022-10-07T22:00:55.949Z,101395.56
2022-10-07T22:03:55.002Z,101397.19
2022-10-07T22:07:11.270Z,101392.06
2022-10-07T22:10:08.864Z,101394.78
2022-10-07T22:13:05.845Z,101392.72
2022-10-07T22:16:04.149Z,101394.38
2022-10-07T22:19:01.662Z,101398.97
2022-10-07T22:22:00.036Z,101386.53
2022-10-07T22:24:57.474Z,101393.47
2022-10-07T22:27:54.417Z,101365.81
2022-10-07T22:30:51.737Z,101367.94
2022-10-07T22:33:53.367Z,101371.84
2022-10-07T22:36:50.653Z,101363.34
2022-10-07T22:39:47.581Z,101374.44
2022-10-07T22:42:46.384Z,101371.03
2022-10-07T22:45:43.716Z,101361.06
2022-10-07T22:48:43.271Z,101351.31
2022-10-07T22:51:40.463Z,101361.25
2022-10-07T22:54:37.890Z,101352.97
2022-10-07T22:57:36.519Z,101336.13
2022-10-07T23:00:33.996Z,101350.69
2022-10-07T23:03:31.585Z,101356.56
2022-10-07T23:06:29.556Z,101347.19
2022-10-07T23:09:26.725Z,101359.75
2022-10-07T23:12:23.530Z,101348.97
2022-10-07T23:15:20.891Z,101335.94
2022-10-07T23:18:17.808Z,101350.75
2022-10-07T23:21:19.521Z,101330.16
2022-10-07T23:24:16.593Z,101319.63
2022-10-07T23:27:15.045Z,101328.44
2022-10-07T23:30:11.999Z,101328.44
2022-10-07T23:33:08.466Z,101326.34
2022-10-07T23:36:09.081Z,101327.44
2022-10-07T23:39:06.452Z,101320.34
2022-10-07T23:42:03.779Z,101318.16
2022-10-07T23:45:03.269Z,101297.19
2022-10-07T23:48:00.608Z,101309.38
2022-10-07T23:50:57.338Z,101308.44
2022-10-07T23:54:01.665Z,101313.56
2022-10-07T23:56:58.614Z,101294.16
2022-10-07T23:59:55.970Z,101291.97
